EKVJ/STA METAR and TAF weather

Enter ICAO airport designator
Station Type Date Time Source
EKVJ METAR 2019/08/19 12:50 UTC NOAA

EKVJ 191250Z 23018KT 9999 SCT020 FEW022TCU 18/16 Q1010


Station Type Date Time Source
EKVJ Decoded METAR 2019/08/19 12:50 UTC NOAA

Stauning Lufthavn, Denmark (EKVJ) 56-00N 008-21E 5M
Aug 19, 2019 - 08:50 AM EDT / 2019.08.19 1250 UTC
Wind: from the SW (230 degrees) at 21 MPH (18 KT):0
Visibility: greater than 7 mile(s):0
Sky conditions: partly cloudy
Weather: Towering cumulus clouds observed
Temperature: 64 F (18 C)
Dew Point: 60 F (16 C)
Relative Humidity: 88%
Pressure (altimeter): 29.83 in. Hg (1010 hPa)
ob: EKVJ 191250Z 23018KT 9999 SCT020 FEW022TCU 18/16 Q1010
cycle: 13

Station Type Date Time Source
EKVJ TAF UTC NOAA

Error!

Example: see airport list